createdAt,value
2023-03-22T03:44:56.344Z,7.78
2023-03-22T04:04:56.310Z,7.79
2023-03-22T04:24:56.308Z,7.79
2023-03-22T04:44:56.264Z,7.79
2023-03-22T05:04:56.249Z,7.79
2023-03-22T05:24:56.222Z,7.79
2023-03-22T06:04:56.169Z,7.8
2023-03-22T06:24:56.140Z,7.8
2023-03-22T06:44:56.106Z,7.8
2023-03-22T07:24:58.392Z,7.81
2023-03-22T07:44:56.087Z,7.81
2023-03-22T08:04:56.666Z,7.81
2023-03-22T08:24:55.983Z,7.81
2023-03-22T08:44:55.993Z,7.82
2023-03-22T09:04:55.969Z,7.82
2023-03-22T09:24:55.620Z,7.82
2023-03-22T09:44:55.610Z,7.83
2023-03-22T10:04:55.854Z,7.83
2023-03-22T10:24:55.826Z,7.83
2023-03-22T11:04:55.773Z,7.84
2023-03-22T11:24:55.737Z,7.84
2023-03-22T11:44:55.715Z,7.84
2023-03-22T12:04:55.716Z,7.84
2023-03-22T12:24:55.692Z,7.85
2023-03-22T12:45:04.461Z,7.85
2023-03-22T13:04:55.660Z,7.85
2023-03-22T13:24:55.582Z,7.85
2023-03-22T13:44:55.530Z,7.85
2023-03-22T14:04:55.598Z,7.85
2023-03-22T15:44:55.381Z,7.86
2023-03-22T16:04:55.376Z,7.87
2023-03-22T16:24:55.356Z,7.86
2023-03-22T17:44:57.675Z,7.87
2023-03-22T18:04:55.180Z,7.88
2023-03-22T18:24:54.883Z,7.88
2023-03-22T18:44:55.134Z,7.88
2023-03-22T19:04:55.099Z,7.88
2023-03-22T19:24:54.789Z,7.89
2023-03-22T19:44:55.205Z,7.89
2023-03-22T20:04:55.027Z,7.89
2023-03-22T20:24:54.979Z,7.89
2023-03-22T20:44:54.964Z,7.89
2023-03-22T21:24:54.897Z,7.89
2023-03-22T21:44:54.888Z,7.9
2023-03-22T22:04:54.859Z,7.9
2023-03-22T22:24:54.839Z,7.9
2023-03-22T22:44:54.795Z,7.9
2023-03-22T23:04:54.770Z,7.9
2023-03-22T23:24:54.763Z,7.9
2023-03-22T23:44:54.704Z,7.9
